createdAt,value
2017-12-21T00:00:58.371Z,1022.90
2017-12-21T00:01:58.365Z,1022.89
2017-12-21T00:02:58.361Z,1022.87
2017-12-21T00:03:58.357Z,1022.84
2017-12-21T00:04:58.352Z,1022.81
2017-12-21T00:05:58.348Z,1022.81
2017-12-21T00:06:58.343Z,1022.80
2017-12-21T00:07:58.338Z,1022.85
2017-12-21T00:08:58.335Z,1022.88
2017-12-21T00:09:58.329Z,1022.93
2017-12-21T00:10:58.326Z,1022.95
2017-12-21T00:11:58.321Z,1022.96
2017-12-21T00:12:58.316Z,1022.96
2017-12-21T00:13:58.312Z,1022.92
2017-12-21T00:14:58.307Z,1022.91
2017-12-21T00:15:58.302Z,1022.86
2017-12-21T00:16:58.298Z,1022.81
2017-12-21T00:17:58.294Z,1022.81
2017-12-21T00:18:58.292Z,1022.78
2017-12-21T00:19:58.285Z,1022.73
2017-12-21T00:20:58.281Z,1022.76
2017-12-21T00:21:58.275Z,1022.80
2017-12-21T00:22:58.270Z,1022.70
2017-12-21T00:23:58.268Z,1022.74
2017-12-21T00:24:58.263Z,1022.71
2017-12-21T00:25:58.260Z,1022.70
2017-12-21T00:26:58.256Z,1022.66
2017-12-21T00:27:58.251Z,1022.65
2017-12-21T00:28:58.246Z,1022.68
2017-12-21T00:29:58.240Z,1022.68
2017-12-21T00:30:58.236Z,1022.66
2017-12-21T00:31:58.234Z,1022.63
2017-12-21T00:32:58.230Z,1022.68
2017-12-21T00:33:58.223Z,1022.71
2017-12-21T00:34:58.219Z,1022.76
2017-12-21T00:35:58.215Z,1022.82
2017-12-21T00:36:58.211Z,1022.82
2017-12-21T00:37:58.206Z,1022.85
2017-12-21T00:38:58.201Z,1022.82
2017-12-21T00:39:58.199Z,1022.82
2017-12-21T00:40:58.193Z,1022.78
2017-12-21T00:41:58.188Z,1022.77
2017-12-21T00:42:58.184Z,1022.73
2017-12-21T00:43:58.180Z,1022.70
2017-12-21T00:44:58.175Z,1022.74
2017-12-21T00:45:58.170Z,1022.71
2017-12-21T00:46:58.166Z,1022.68
2017-12-21T00:47:58.163Z,1022.70
2017-12-21T00:48:58.158Z,1022.69
2017-12-21T00:49:58.153Z,1022.66
2017-12-21T00:50:58.149Z,1022.62
2017-12-21T00:51:58.145Z,1022.61
2017-12-21T00:52:58.140Z,1022.57
2017-12-21T00:53:58.136Z,1022.58
2017-12-21T00:54:58.132Z,1022.56
2017-12-21T00:55:58.128Z,1022.54
2017-12-21T00:56:58.123Z,1022.57
2017-12-21T00:57:58.117Z,1022.56
2017-12-21T00:58:58.113Z,1022.53
2017-12-21T00:59:58.111Z,1022.59
2017-12-21T01:00:58.105Z,1022.61
2017-12-21T01:01:58.104Z,1022.62
2017-12-21T01:02:58.097Z,1022.63
2017-12-21T01:03:58.092Z,1022.62
2017-12-21T01:04:58.087Z,1022.62
2017-12-21T01:05:58.083Z,1022.65
2017-12-21T01:06:58.078Z,1022.63
2017-12-21T01:07:58.077Z,1022.64
2017-12-21T01:08:58.071Z,1022.65
2017-12-21T01:09:58.066Z,1022.62
2017-12-21T01:10:58.061Z,1022.64
2017-12-21T01:11:58.057Z,1022.66
2017-12-21T01:12:58.052Z,1022.63
2017-12-21T01:13:58.047Z,1022.59
2017-12-21T01:14:58.047Z,1022.68
2017-12-21T01:15:58.039Z,1022.66
2017-12-21T01:16:58.037Z,1022.65
2017-12-21T01:17:58.030Z,1022.69
2017-12-21T01:18:58.026Z,1022.71
2017-12-21T01:19:58.022Z,1022.68
2017-12-21T01:20:58.017Z,1022.70
2017-12-21T01:21:58.012Z,1022.69
2017-12-21T01:22:58.009Z,1022.72
2017-12-21T01:23:58.004Z,1022.70
2017-12-21T01:24:58.000Z,1022.67
2017-12-21T01:25:57.996Z,1022.69
2017-12-21T01:26:57.991Z,1022.67
2017-12-21T01:27:57.986Z,1022.68
2017-12-21T01:28:57.982Z,1022.61
2017-12-21T01:29:57.979Z,1022.66
2017-12-21T01:30:57.972Z,1022.68
2017-12-21T01:31:57.971Z,1022.67
2017-12-21T01:32:57.965Z,1022.63
2017-12-21T01:33:57.960Z,1022.67
2017-12-21T01:34:57.956Z,1022.63
2017-12-21T01:35:57.953Z,1022.64
2017-12-21T01:36:57.947Z,1022.66
2017-12-21T01:37:57.942Z,1022.65
2017-12-21T01:38:57.937Z,1022.66
2017-12-21T01:39:57.934Z,1022.65
2017-12-21T01:40:57.932Z,1022.64
2017-12-21T01:41:57.924Z,1022.59
2017-12-21T01:42:57.920Z,1022.56
2017-12-21T01:43:57.916Z,1022.58
2017-12-21T01:44:57.912Z,1022.54
2017-12-21T01:45:57.908Z,1022.57
2017-12-21T01:46:57.902Z,1022.57
2017-12-21T01:47:57.899Z,1022.58
2017-12-21T01:48:57.895Z,1022.57
2017-12-21T01:49:57.889Z,1022.57
2017-12-21T01:50:57.886Z,1022.54
2017-12-21T01:51:57.880Z,1022.57
2017-12-21T01:52:57.877Z,1022.58
2017-12-21T01:53:57.871Z,1022.54
2017-12-21T01:54:57.868Z,1022.50
2017-12-21T01:55:57.864Z,1022.54
2017-12-21T01:56:57.858Z,1022.48
2017-12-21T01:57:57.852Z,1022.49
2017-12-21T01:58:57.850Z,1022.48
2017-12-21T01:59:57.845Z,1022.50
2017-12-21T02:00:57.841Z,1022.47
2017-12-21T02:01:57.836Z,1022.51
2017-12-21T02:02:57.834Z,1022.51
2017-12-21T02:03:57.827Z,1022.54
2017-12-21T02:04:57.826Z,1022.57
2017-12-21T02:05:57.818Z,1022.58
2017-12-21T02:06:57.813Z,1022.57
2017-12-21T02:07:57.809Z,1022.61
2017-12-21T02:08:57.806Z,1022.57
2017-12-21T02:09:57.800Z,1022.60
2017-12-21T02:10:57.795Z,1022.57
2017-12-21T02:11:57.790Z,1022.54
2017-12-21T02:12:57.786Z,1022.54
2017-12-21T02:13:57.782Z,1022.48
2017-12-21T02:14:57.777Z,1022.51
2017-12-21T02:15:57.773Z,1022.54
2017-12-21T02:16:57.769Z,1022.55
2017-12-21T02:17:57.764Z,1022.58
2017-12-21T02:18:57.758Z,1022.52
2017-12-21T02:19:57.756Z,1022.51
2017-12-21T02:20:57.750Z,1022.51
2017-12-21T02:21:57.745Z,1022.52
2017-12-21T02:22:57.741Z,1022.46
2017-12-21T02:23:57.739Z,1022.50
2017-12-21T02:24:57.733Z,1022.47
2017-12-21T02:25:57.728Z,1022.52
2017-12-21T02:26:57.722Z,1022.55
2017-12-21T02:27:57.719Z,1022.55
2017-12-21T02:28:57.713Z,1022.54
2017-12-21T02:29:57.710Z,1022.55
2017-12-21T02:30:57.707Z,1022.58
2017-12-21T02:31:57.701Z,1022.55
2017-12-21T02:32:57.696Z,1022.54
2017-12-21T02:33:57.691Z,1022.53
2017-12-21T02:34:57.688Z,1022.53
2017-12-21T02:35:57.684Z,1022.47
2017-12-21T02:36:57.679Z,1022.48
2017-12-21T02:37:57.674Z,1022.50
2017-12-21T02:38:57.669Z,1022.46
2017-12-21T02:39:57.665Z,1022.49
2017-12-21T02:40:57.661Z,1022.49
2017-12-21T02:41:57.655Z,1022.51
2017-12-21T02:42:57.650Z,1022.48
2017-12-21T02:43:57.647Z,1022.47
2017-12-21T02:44:57.644Z,1022.52
2017-12-21T02:45:57.643Z,1022.49
2017-12-21T02:46:57.634Z,1022.52
2017-12-21T02:47:57.630Z,1022.48
2017-12-21T02:48:57.625Z,1022.44
2017-12-21T02:49:57.619Z,1022.44
2017-12-21T02:50:57.616Z,1022.45
2017-12-21T02:51:57.612Z,1022.47
2017-12-21T02:52:57.617Z,1022.43
2017-12-21T02:53:57.601Z,1022.41
2017-12-21T02:54:57.598Z,1022.43
2017-12-21T02:55:57.594Z,1022.45
2017-12-21T02:56:57.589Z,1022.44
2017-12-21T02:57:57.586Z,1022.47
2017-12-21T02:58:57.579Z,1022.51
2017-12-21T02:59:57.580Z,1022.49
2017-12-21T03:00:57.571Z,1022.45
2017-12-21T03:01:57.565Z,1022.46
2017-12-21T03:02:57.562Z,1022.46
2017-12-21T03:03:57.558Z,1022.46
2017-12-21T03:04:57.552Z,1022.45
2017-12-21T03:05:57.597Z,1022.45
2017-12-21T03:06:57.543Z,1022.43
2017-12-21T03:07:57.540Z,1022.40
2017-12-21T03:08:57.534Z,1022.41
2017-12-21T03:09:57.530Z,1022.40
2017-12-21T03:10:57.531Z,1022.41
2017-12-21T03:11:57.521Z,1022.46
2017-12-21T03:12:57.517Z,1022.49
2017-12-21T03:13:57.511Z,1022.46
2017-12-21T03:14:57.508Z,1022.42
2017-12-21T03:15:57.503Z,1022.43
2017-12-21T03:16:57.500Z,1022.46
2017-12-21T03:17:57.494Z,1022.44
2017-12-21T03:18:57.491Z,1022.45
2017-12-21T03:19:57.488Z,1022.43
2017-12-21T03:20:57.481Z,1022.48
2017-12-21T03:21:57.477Z,1022.46
2017-12-21T03:22:57.473Z,1022.50
2017-12-21T03:23:57.518Z,1022.48
2017-12-21T03:24:57.465Z,1022.48
2017-12-21T03:25:57.459Z,1022.46
2017-12-21T03:26:57.454Z,1022.49
2017-12-21T03:27:57.450Z,1022.43
2017-12-21T03:28:57.445Z,1022.42
2017-12-21T03:29:57.441Z,1022.40
2017-12-21T03:30:57.439Z,1022.38
2017-12-21T03:31:57.434Z,1022.33
2017-12-21T03:32:57.430Z,1022.34
2017-12-21T03:33:57.423Z,1022.33
2017-12-21T03:34:57.420Z,1022.31
2017-12-21T03:35:57.416Z,1022.27
2017-12-21T03:36:57.410Z,1022.21
2017-12-21T03:37:57.405Z,1022.18
2017-12-21T03:38:57.402Z,1022.16
2017-12-21T03:39:57.401Z,1022.14
2017-12-21T03:40:57.393Z,1022.16
2017-12-21T03:41:57.389Z,1022.10
2017-12-21T03:42:57.383Z,1022.12
2017-12-21T03:43:57.380Z,1022.12
2017-12-21T03:44:57.375Z,1022.10
2017-12-21T03:45:57.369Z,1022.12
2017-12-21T03:46:57.365Z,1022.11
2017-12-21T03:47:57.361Z,1022.12
2017-12-21T03:48:57.358Z,1022.11
2017-12-21T03:49:57.351Z,1022.10
2017-12-21T03:50:57.346Z,1022.07
2017-12-21T03:51:57.342Z,1022.04
2017-12-21T03:52:57.340Z,1022.06
2017-12-21T03:53:57.333Z,1022.03
2017-12-21T03:54:57.329Z,1022.01
2017-12-21T03:55:57.325Z,1021.99
2017-12-21T03:56:57.323Z,1022.02
2017-12-21T03:57:57.315Z,1021.96
2017-12-21T03:58:57.310Z,1021.99
2017-12-21T03:59:57.326Z,1021.96
2017-12-21T04:00:57.313Z,1021.97
2017-12-21T04:01:57.297Z,1021.98
2017-12-21T04:02:57.294Z,1021.94
2017-12-21T04:03:57.289Z,1022.03
2017-12-21T04:04:57.286Z,1022.01
2017-12-21T04:05:57.280Z,1021.95
2017-12-21T04:06:57.275Z,1022.04
2017-12-21T04:07:57.272Z,1022.06
2017-12-21T04:08:57.266Z,1022.02
2017-12-21T04:09:57.261Z,1022.03
2017-12-21T04:10:57.255Z,1022.04
2017-12-21T04:11:57.254Z,1022.07
2017-12-21T04:12:57.249Z,1022.06
2017-12-21T04:13:57.242Z,1022.11
2017-12-21T04:14:57.239Z,1022.10
2017-12-21T04:15:57.236Z,1022.09
2017-12-21T04:16:57.229Z,1022.12
2017-12-21T04:17:57.225Z,1022.11
2017-12-21T04:18:57.227Z,1022.17
2017-12-21T04:19:57.217Z,1022.19
2017-12-21T04:20:57.211Z,1022.20
2017-12-21T04:21:57.205Z,1022.17
2017-12-21T04:22:57.201Z,1022.20
2017-12-21T04:23:57.196Z,1022.20
2017-12-21T04:24:57.195Z,1022.20
2017-12-21T04:25:57.211Z,1022.19
2017-12-21T04:26:57.183Z,1022.19
2017-12-21T04:27:57.178Z,1022.15
2017-12-21T04:28:57.174Z,1022.15
2017-12-21T04:29:57.168Z,1022.16
2017-12-21T04:30:57.164Z,1022.12
2017-12-21T04:31:57.159Z,1022.13
2017-12-21T04:32:57.157Z,1022.13
2017-12-21T04:33:57.151Z,1022.08
2017-12-21T04:34:57.146Z,1022.10
2017-12-21T04:35:57.142Z,1022.10
2017-12-21T04:36:57.136Z,1022.05
2017-12-21T04:37:57.131Z,1022.03
2017-12-21T04:38:57.128Z,1022.08
2017-12-21T04:39:57.123Z,1022.03
2017-12-21T04:40:57.119Z,1022.07
2017-12-21T04:41:57.112Z,1022.02
2017-12-21T04:42:57.109Z,1022.05
2017-12-21T04:43:57.105Z,1022.05
2017-12-21T04:44:57.100Z,1022.01
2017-12-21T04:45:57.094Z,1022.02
2017-12-21T04:46:57.089Z,1022.02
2017-12-21T04:47:57.085Z,1021.99
2017-12-21T04:48:57.083Z,1022.02
2017-12-21T04:49:57.075Z,1021.99
2017-12-21T04:50:57.071Z,1022.00
2017-12-21T04:51:57.066Z,1022.01
2017-12-21T04:52:57.062Z,1022.02
2017-12-21T04:53:57.057Z,1021.99
2017-12-21T04:54:57.052Z,1022.02
2017-12-21T04:55:57.047Z,1022.02
2017-12-21T04:56:57.042Z,1022.01
2017-12-21T04:57:57.038Z,1022.01
2017-12-21T04:58:57.034Z,1022.00
2017-12-21T04:59:57.029Z,1021.97
2017-12-21T05:00:57.024Z,1021.96
2017-12-21T05:01:57.019Z,1021.93
2017-12-21T05:02:57.014Z,1021.96
2017-12-21T05:03:57.010Z,1021.99
2017-12-21T05:04:57.005Z,1021.95
2017-12-21T05:05:57.000Z,1021.93
2017-12-21T05:06:56.995Z,1021.97
2017-12-21T05:07:56.998Z,1021.99
2017-12-21T05:08:56.987Z,1021.94
2017-12-21T05:09:56.990Z,1021.97
2017-12-21T05:10:56.991Z,1021.97
2017-12-21T05:11:56.972Z,1021.92
2017-12-21T05:12:56.968Z,1021.92
2017-12-21T05:13:56.964Z,1021.93
2017-12-21T05:14:56.958Z,1021.95
2017-12-21T05:15:56.954Z,1021.91
2017-12-21T05:16:56.949Z,1021.98
2017-12-21T05:17:56.945Z,1021.96
2017-12-21T05:18:56.940Z,1021.95
2017-12-21T05:19:56.934Z,1021.97
2017-12-21T05:20:56.930Z,1021.95
2017-12-21T05:21:56.925Z,1021.93
2017-12-21T05:22:56.922Z,1021.94
2017-12-21T05:23:56.916Z,1021.94
2017-12-21T05:24:56.913Z,1021.91
2017-12-21T05:25:56.908Z,1021.89
2017-12-21T05:26:56.903Z,1021.92
2017-12-21T05:27:56.898Z,1021.92
2017-12-21T05:28:56.895Z,1021.92
2017-12-21T05:29:56.889Z,1021.98
2017-12-21T05:30:56.885Z,1021.99
2017-12-21T05:31:56.880Z,1021.99
2017-12-21T05:32:56.875Z,1022.01
2017-12-21T05:33:56.870Z,1022.00
2017-12-21T05:34:56.865Z,1022.03
2017-12-21T05:35:56.860Z,1022.00
2017-12-21T05:36:56.857Z,1022.04
2017-12-21T05:37:56.850Z,1022.03
2017-12-21T05:38:56.847Z,1022.01
2017-12-21T05:39:56.843Z,1022.06
2017-12-21T05:40:56.837Z,1022.06
2017-12-21T05:41:56.833Z,1022.02
2017-12-21T05:42:56.828Z,1022.06
2017-12-21T05:43:56.824Z,1022.04
2017-12-21T05:44:56.818Z,1022.07
2017-12-21T05:45:56.813Z,1022.09
2017-12-21T05:46:56.809Z,1022.08
2017-12-21T05:47:56.812Z,1022.07
2017-12-21T05:48:56.800Z,1022.03
2017-12-21T05:49:56.796Z,1022.08
2017-12-21T05:50:56.791Z,1022.08
2017-12-21T05:51:56.786Z,1022.11
2017-12-21T05:52:56.780Z,1022.12
2017-12-21T05:53:56.777Z,1022.11
2017-12-21T05:54:56.772Z,1022.12
2017-12-21T05:55:56.768Z,1022.09
2017-12-21T05:56:56.764Z,1022.11
2017-12-21T05:57:56.758Z,1022.14
2017-12-21T05:58:56.753Z,1022.12
2017-12-21T05:59:56.748Z,1022.19
2017-12-21T06:00:56.743Z,1022.15
2017-12-21T06:01:56.738Z,1022.12
2017-12-21T06:02:56.734Z,1022.11
2017-12-21T06:03:56.730Z,1022.14
2017-12-21T06:04:56.726Z,1022.12
2017-12-21T06:05:56.721Z,1022.11
2017-12-21T06:06:56.716Z,1022.15
2017-12-21T06:07:56.711Z,1022.10
2017-12-21T06:08:56.707Z,1022.08
2017-12-21T06:09:56.701Z,1022.07
2017-12-21T06:10:56.697Z,1022.08
2017-12-21T06:11:56.693Z,1022.07
2017-12-21T06:12:56.687Z,1022.12
2017-12-21T06:13:56.683Z,1022.10
2017-12-21T06:14:56.678Z,1022.11
2017-12-21T06:15:56.673Z,1022.11
2017-12-21T06:16:56.669Z,1022.12
2017-12-21T06:17:56.663Z,1022.14
2017-12-21T06:18:56.659Z,1022.14
2017-12-21T06:19:56.658Z,1022.10
2017-12-21T06:20:56.650Z,1022.12
2017-12-21T06:21:56.646Z,1022.12
2017-12-21T06:22:56.641Z,1022.13
2017-12-21T06:23:56.636Z,1022.06
2017-12-21T06:24:56.631Z,1022.12
2017-12-21T06:25:56.626Z,1022.12
2017-12-21T06:26:56.621Z,1022.13
2017-12-21T06:27:56.616Z,1022.12
2017-12-21T06:28:56.614Z,1022.13
2017-12-21T06:29:56.608Z,1022.14
2017-12-21T06:30:56.604Z,1022.13
2017-12-21T06:31:56.598Z,1022.16
2017-12-21T06:32:56.596Z,1022.16
2017-12-21T06:33:56.590Z,1022.18
2017-12-21T06:34:56.585Z,1022.17
2017-12-21T06:35:56.582Z,1022.19
2017-12-21T06:36:56.578Z,1022.20
2017-12-21T06:37:56.571Z,1022.19
2017-12-21T06:38:56.568Z,1022.17
2017-12-21T06:39:56.562Z,1022.18
2017-12-21T06:40:56.558Z,1022.18
2017-12-21T06:41:56.553Z,1022.18
2017-12-21T06:42:56.549Z,1022.13
2017-12-21T06:43:56.546Z,1022.18
2017-12-21T06:44:56.542Z,1022.20
2017-12-21T06:45:56.536Z,1022.20
2017-12-21T06:46:56.531Z,1022.20
2017-12-21T06:47:56.527Z,1022.23
2017-12-21T06:48:56.523Z,1022.21
2017-12-21T06:49:56.516Z,1022.20
2017-12-21T06:50:56.514Z,1022.20
2017-12-21T06:51:56.508Z,1022.18
2017-12-21T06:52:56.511Z,1022.27
2017-12-21T06:53:56.500Z,1022.26
2017-12-21T06:54:56.495Z,1022.22
2017-12-21T06:55:56.491Z,1022.23
2017-12-21T06:56:56.485Z,1022.29
2017-12-21T06:57:56.479Z,1022.29
2017-12-21T06:58:56.477Z,1022.33
2017-12-21T06:59:56.471Z,1022.27
2017-12-21T07:00:56.468Z,1022.28
2017-12-21T07:01:56.462Z,1022.25
2017-12-21T07:02:56.458Z,1022.19
2017-12-21T07:03:56.451Z,1022.21
2017-12-21T07:04:56.447Z,1022.20
2017-12-21T07:05:56.442Z,1022.22
2017-12-21T07:06:56.439Z,1022.19
2017-12-21T07:07:56.434Z,1022.20
2017-12-21T07:08:56.428Z,1022.14
2017-12-21T07:09:56.424Z,1022.19
2017-12-21T07:10:56.420Z,1022.16
2017-12-21T07:11:56.417Z,1022.19
2017-12-21T07:12:56.412Z,1022.17
2017-12-21T07:13:56.405Z,1022.18
2017-12-21T07:14:56.401Z,1022.20
2017-12-21T07:15:56.395Z,1022.21
2017-12-21T07:16:56.393Z,1022.20
2017-12-21T07:17:56.385Z,1022.20
2017-12-21T07:18:56.383Z,1022.17
2017-12-21T07:19:56.378Z,1022.20
2017-12-21T07:20:56.373Z,1022.22
2017-12-21T07:21:56.411Z,1022.19
2017-12-21T07:22:56.364Z,1022.25
2017-12-21T07:23:56.358Z,1022.26
2017-12-21T07:24:56.354Z,1022.23
2017-12-21T07:25:56.348Z,1022.26
2017-12-21T07:26:56.343Z,1022.28
2017-12-21T07:27:56.340Z,1022.31
2017-12-21T07:28:56.339Z,1022.31
2017-12-21T07:29:56.330Z,1022.27
2017-12-21T07:30:56.325Z,1022.27
2017-12-21T07:31:56.320Z,1022.33
2017-12-21T07:32:56.316Z,1022.32
2017-12-21T07:33:56.312Z,1022.35
2017-12-21T07:34:56.308Z,1022.35
2017-12-21T07:35:56.302Z,1022.34
2017-12-21T07:36:56.298Z,1022.37
2017-12-21T07:37:56.293Z,1022.35
2017-12-21T07:38:56.287Z,1022.43
2017-12-21T07:39:56.282Z,1022.40
2017-12-21T07:40:56.278Z,1022.38
2017-12-21T07:41:56.274Z,1022.36
2017-12-21T07:42:56.269Z,1022.37
2017-12-21T07:43:56.263Z,1022.35
2017-12-21T07:44:56.260Z,1022.33
2017-12-21T07:45:56.254Z,1022.31
2017-12-21T07:46:56.249Z,1022.32
2017-12-21T07:47:56.246Z,1022.29
2017-12-21T07:48:56.241Z,1022.27
2017-12-21T07:49:56.236Z,1022.24
2017-12-21T07:50:56.232Z,1022.18
2017-12-21T07:51:56.227Z,1022.23
2017-12-21T07:52:56.223Z,1022.19
2017-12-21T07:53:56.218Z,1022.15
2017-12-21T07:54:56.213Z,1022.12
2017-12-21T07:55:56.208Z,1022.05
2017-12-21T07:56:56.205Z,1022.14
2017-12-21T07:57:56.199Z,1022.12
2017-12-21T07:58:56.196Z,1022.16
2017-12-21T07:59:56.192Z,1022.17
2017-12-21T08:00:56.187Z,1022.16
2017-12-21T08:01:56.181Z,1022.14
2017-12-21T08:02:56.177Z,1022.16
2017-12-21T08:03:56.173Z,1022.14
2017-12-21T08:04:56.169Z,1022.16
2017-12-21T08:05:56.163Z,1022.22
2017-12-21T08:06:56.158Z,1022.22
2017-12-21T08:07:56.156Z,1022.22
2017-12-21T08:08:56.152Z,1022.27
2017-12-21T08:09:56.145Z,1022.34
2017-12-21T08:10:56.141Z,1022.39
2017-12-21T08:11:56.138Z,1022.42
2017-12-21T08:12:56.134Z,1022.40
2017-12-21T08:13:56.130Z,1022.40
2017-12-21T08:14:56.125Z,1022.45
2017-12-21T08:15:56.121Z,1022.51
2017-12-21T08:16:56.116Z,1022.48
2017-12-21T08:17:56.113Z,1022.47
2017-12-21T08:18:56.108Z,1022.52
2017-12-21T08:19:56.104Z,1022.51
2017-12-21T08:20:56.099Z,1022.54
2017-12-21T08:21:56.094Z,1022.58
2017-12-21T08:22:56.091Z,1022.63
2017-12-21T08:23:56.086Z,1022.55
2017-12-21T08:24:56.083Z,1022.57
2017-12-21T08:25:56.078Z,1022.60
2017-12-21T08:26:56.073Z,1022.60
2017-12-21T08:27:56.071Z,1022.52
2017-12-21T08:28:56.066Z,1022.44
2017-12-21T08:29:56.062Z,1022.50
2017-12-21T08:30:56.058Z,1022.53
2017-12-21T08:31:56.053Z,1022.52
2017-12-21T08:32:56.050Z,1022.46
2017-12-21T08:33:56.045Z,1022.53
2017-12-21T08:34:56.040Z,1022.54
2017-12-21T08:35:56.037Z,1022.57
2017-12-21T08:36:56.034Z,1022.62
2017-12-21T08:37:56.027Z,1022.62
2017-12-21T08:38:56.022Z,1022.58
2017-12-21T08:39:56.020Z,1022.60
2017-12-21T08:40:56.015Z,1022.65
2017-12-21T08:41:56.009Z,1022.66
2017-12-21T08:42:56.007Z,1022.64
2017-12-21T08:43:56.002Z,1022.58
2017-12-21T08:44:55.996Z,1022.56
2017-12-21T08:45:55.993Z,1022.59
2017-12-21T08:46:55.988Z,1022.60
2017-12-21T08:47:55.985Z,1022.62
2017-12-21T08:48:55.981Z,1022.62
2017-12-21T08:49:55.974Z,1022.62
2017-12-21T08:50:55.971Z,1022.64
2017-12-21T08:51:55.966Z,1022.65
2017-12-21T08:52:55.962Z,1022.66
2017-12-21T08:53:55.957Z,1022.62
2017-12-21T08:54:55.954Z,1022.60
2017-12-21T08:55:55.950Z,1022.62
2017-12-21T08:56:55.947Z,1022.55
2017-12-21T08:57:55.942Z,1022.57
2017-12-21T08:58:55.936Z,1022.53
2017-12-21T08:59:55.932Z,1022.56
2017-12-21T09:00:55.929Z,1022.53
2017-12-21T09:01:55.923Z,1022.57
2017-12-21T09:02:55.919Z,1022.54
2017-12-21T09:03:55.916Z,1022.57
2017-12-21T09:04:55.910Z,1022.56
2017-12-21T09:05:55.905Z,1022.57
2017-12-21T09:06:55.902Z,1022.59
2017-12-21T09:07:55.899Z,1022.52
2017-12-21T09:08:55.895Z,1022.53
2017-12-21T09:09:55.890Z,1022.54
2017-12-21T09:10:55.886Z,1022.52
2017-12-21T09:11:55.882Z,1022.53
2017-12-21T09:12:55.876Z,1022.54
2017-12-21T09:13:55.872Z,1022.48
2017-12-21T09:14:55.869Z,1022.50
2017-12-21T09:15:55.865Z,1022.50
2017-12-21T09:16:55.861Z,1022.52
2017-12-21T09:17:55.856Z,1022.53
2017-12-21T09:18:55.851Z,1022.47
2017-12-21T09:19:55.846Z,1022.42
2017-12-21T09:20:55.843Z,1022.47
2017-12-21T09:21:55.838Z,1022.48
2017-12-21T09:22:55.837Z,1022.48
2017-12-21T09:23:55.830Z,1022.46
2017-12-21T09:24:55.827Z,1022.50
2017-12-21T09:25:55.820Z,1022.53
2017-12-21T09:26:55.816Z,1022.52
2017-12-21T09:27:55.813Z,1022.49
2017-12-21T09:28:55.808Z,1022.46
2017-12-21T09:29:55.804Z,1022.47
2017-12-21T09:30:55.800Z,1022.46
2017-12-21T09:31:55.797Z,1022.45
2017-12-21T09:32:55.792Z,1022.45
2017-12-21T09:33:55.786Z,1022.46
2017-12-21T09:34:55.782Z,1022.49
2017-12-21T09:35:55.778Z,1022.46
2017-12-21T09:36:55.775Z,1022.49
2017-12-21T09:37:55.771Z,1022.51
2017-12-21T09:38:55.766Z,1022.56
2017-12-21T09:39:55.762Z,1022.53
2017-12-21T09:40:55.758Z,1022.51
2017-12-21T09:41:55.752Z,1022.54
2017-12-21T09:42:55.749Z,1022.58
2017-12-21T09:43:55.745Z,1022.59
2017-12-21T09:44:55.741Z,1022.56
2017-12-21T09:45:55.737Z,1022.62
2017-12-21T09:46:55.731Z,1022.60
2017-12-21T09:47:55.727Z,1022.60
2017-12-21T09:48:55.724Z,1022.64
2017-12-21T09:49:55.718Z,1022.62
2017-12-21T09:50:55.716Z,1022.67
2017-12-21T09:51:55.713Z,1022.69
2017-12-21T09:52:55.707Z,1022.67
2017-12-21T09:53:55.702Z,1022.74
2017-12-21T09:54:55.699Z,1022.73
2017-12-21T09:55:55.698Z,1022.76
2017-12-21T09:56:55.690Z,1022.72
2017-12-21T09:57:55.691Z,1022.70
2017-12-21T09:58:55.681Z,1022.68
2017-12-21T09:59:55.677Z,1022.66
2017-12-21T10:00:55.673Z,1022.67
2017-12-21T10:01:55.668Z,1022.68
2017-12-21T10:02:55.663Z,1022.81
2017-12-21T10:03:55.660Z,1022.75
2017-12-21T10:04:55.654Z,1022.82
2017-12-21T10:05:55.651Z,1022.71
2017-12-21T10:06:55.647Z,1022.77
2017-12-21T10:07:55.642Z,1022.79
2017-12-21T10:08:55.637Z,1022.75
2017-12-21T10:09:55.633Z,1022.78
2017-12-21T10:10:55.631Z,1022.75
2017-12-21T10:11:55.626Z,1022.72
2017-12-21T10:12:55.622Z,1022.70
2017-12-21T10:13:55.617Z,1022.73
2017-12-21T10:14:55.613Z,1022.72
2017-12-21T10:15:55.609Z,1022.68
2017-12-21T10:16:55.605Z,1022.62
2017-12-21T10:17:55.600Z,1022.62
2017-12-21T10:18:55.597Z,1022.61
2017-12-21T10:19:55.593Z,1022.61
2017-12-21T10:20:55.588Z,1022.61
2017-12-21T10:21:55.583Z,1022.66
2017-12-21T10:22:55.579Z,1022.61
2017-12-21T10:23:55.578Z,1022.61
2017-12-21T10:24:55.573Z,1022.59
2017-12-21T10:25:55.567Z,1022.59
2017-12-21T10:26:55.563Z,1022.58
2017-12-21T10:27:55.559Z,1022.59
2017-12-21T10:28:55.557Z,1022.61
2017-12-21T10:29:55.549Z,1022.61
2017-12-21T10:30:55.547Z,1022.56
2017-12-21T10:31:55.540Z,1022.63
2017-12-21T10:32:55.539Z,1022.61
2017-12-21T10:33:55.534Z,1022.62
2017-12-21T10:34:55.529Z,1022.61
2017-12-21T10:35:55.526Z,1022.62
2017-12-21T10:36:55.522Z,1022.64
2017-12-21T10:37:55.518Z,1022.67
2017-12-21T10:38:55.513Z,1022.67
2017-12-21T10:39:55.513Z,1022.69
2017-12-21T10:40:55.503Z,1022.63
2017-12-21T10:41:55.498Z,1022.66
2017-12-21T10:42:55.494Z,1022.66
2017-12-21T10:43:55.492Z,1022.61
2017-12-21T10:44:55.488Z,1022.63
2017-12-21T10:45:55.481Z,1022.62
2017-12-21T10:46:55.478Z,1022.62
2017-12-21T10:47:55.474Z,1022.60
2017-12-21T10:48:55.470Z,1022.61
2017-12-21T10:49:55.464Z,1022.63
2017-12-21T10:50:55.462Z,1022.60
2017-12-21T10:51:55.456Z,1022.62
2017-12-21T10:52:55.458Z,1022.58
2017-12-21T10:53:55.448Z,1022.64
2017-12-21T10:54:55.444Z,1022.64
2017-12-21T10:55:55.440Z,1022.62
2017-12-21T10:56:55.436Z,1022.61
2017-12-21T10:57:55.431Z,1022.62
2017-12-21T10:58:55.427Z,1022.62
2017-12-21T10:59:55.423Z,1022.63
2017-12-21T11:00:55.420Z,1022.64
2017-12-21T11:01:55.414Z,1022.69
2017-12-21T11:02:55.411Z,1022.62
2017-12-21T11:03:55.406Z,1022.66
2017-12-21T11:04:55.402Z,1022.65
2017-12-21T11:05:55.396Z,1022.63
2017-12-21T11:06:55.393Z,1022.65
2017-12-21T11:07:55.391Z,1022.67
2017-12-21T11:08:55.387Z,1022.66
2017-12-21T11:09:55.380Z,1022.70
2017-12-21T11:10:55.376Z,1022.68
2017-12-21T11:11:55.373Z,1022.73
2017-12-21T11:12:55.367Z,1022.68
2017-12-21T11:13:55.366Z,1022.70
2017-12-21T11:14:55.359Z,1022.70
2017-12-21T11:15:55.355Z,1022.66
2017-12-21T11:16:55.352Z,1022.68
2017-12-21T11:17:55.347Z,1022.66
2017-12-21T11:18:55.344Z,1022.62
2017-12-21T11:19:55.342Z,1022.61
2017-12-21T11:20:55.336Z,1022.59
2017-12-21T11:21:55.332Z,1022.62
2017-12-21T11:22:55.327Z,1022.62
2017-12-21T11:23:55.326Z,1022.60
2017-12-21T11:24:55.320Z,1022.58
2017-12-21T11:25:55.318Z,1022.56
2017-12-21T11:26:55.312Z,1022.54
2017-12-21T11:27:55.308Z,1022.56
2017-12-21T11:28:55.303Z,1022.55
2017-12-21T11:29:55.300Z,1022.50
2017-12-21T11:30:55.296Z,1022.44
2017-12-21T11:31:55.293Z,1022.47
2017-12-21T11:32:55.290Z,1022.43
2017-12-21T11:33:55.284Z,1022.41
2017-12-21T11:34:55.280Z,1022.40
2017-12-21T11:35:55.277Z,1022.38
2017-12-21T11:36:55.273Z,1022.41
2017-12-21T11:37:55.268Z,1022.38
2017-12-21T11:38:55.267Z,1022.36
2017-12-21T11:39:55.261Z,1022.36
2017-12-21T11:40:55.258Z,1022.38
2017-12-21T11:41:55.253Z,1022.34
2017-12-21T11:42:55.249Z,1022.39
2017-12-21T11:43:55.245Z,1022.41
2017-12-21T11:44:55.243Z,1022.42
2017-12-21T11:45:55.242Z,1022.36
2017-12-21T11:46:55.241Z,1022.46
2017-12-21T11:47:55.231Z,1022.46
2017-12-21T11:48:55.227Z,1022.39
2017-12-21T11:49:55.223Z,1022.39
2017-12-21T11:50:55.220Z,1022.40
2017-12-21T11:51:55.215Z,1022.40
2017-12-21T11:52:55.213Z,1022.39
2017-12-21T11:53:55.209Z,1022.38
2017-12-21T11:54:55.204Z,1022.39
2017-12-21T11:55:55.201Z,1022.36
2017-12-21T11:56:55.198Z,1022.37
2017-12-21T11:57:55.194Z,1022.29
2017-12-21T11:58:55.190Z,1022.32
2017-12-21T11:59:55.186Z,1022.30
2017-12-21T12:00:55.184Z,1022.28
2017-12-21T12:01:55.179Z,1022.26
2017-12-21T12:02:55.176Z,1022.28
2017-12-21T12:03:55.172Z,1022.31
2017-12-21T12:04:55.169Z,1022.28
2017-12-21T12:05:55.165Z,1022.28